Time;durP1;ratioP1;P1;durP2;ratioP2;P2;SDS_P1;SDS_P2;PMS_P1;PMS_P2;Temp;Humidity;BMP_temperature;BMP_pressure;BME280_temperature;BME280_humidity;BME280_pressure;Samples;Min_cycle;Max_cycle;Signal;HPM_P1;HPM_P2
2022/06/26 00:00:37;;;;;;;;;0.00;0.00;;;;;-146.67;32.98;73693.44;5044123;28;62130;-76
2022/06/26 00:03:02;;;;;;;;;0.00;0.00;;;;;-146.67;33.05;73697.41;5026361;28;62188;-76
2022/06/26 00:05:28;;;;;;;;;0.00;0.00;;;;;-146.67;33.18;73701.41;5025650;28;62327;-76
2022/06/26 00:07:53;;;;;;;;;0.00;0.00;;;;;-146.67;33.17;73721.38;5043769;28;62608;-76
2022/06/26 00:10:20;;;;;;;;;0.00;0.00;;;;;-146.67;33.44;73719.38;5025932;28;62033;-76
2022/06/26 00:12:45;;;;;;;;;0.00;0.00;;;;;-146.67;33.11;73719.38;5044541;28;62077;-76
2022/06/26 00:15:11;;;;;;;;;0.00;0.00;;;;;-146.67;33.26;73713.38;5026315;28;62109;-75
2022/06/26 00:17:37;;;;;;;;;0.00;0.00;;;;;-146.67;33.18;73709.41;5025493;28;63947;-76
2022/06/26 00:20:03;;;;;;;;;0.00;0.00;;;;;-146.67;33.32;73715.38;5025853;28;62436;-76
2022/06/26 00:22:28;;;;;;;;;0.00;0.00;;;;;-146.67;33.21;73717.38;5044049;28;62261;-76
2022/06/26 00:24:54;;;;;;;;;0.00;0.00;;;;;-146.67;33.21;73721.38;5044242;28;61787;-75
2022/06/26 00:27:19;;;;;;;;;0.00;0.00;;;;;-146.67;32.93;73721.38;5043520;28;62742;-76
2022/06/26 00:29:45;;;;;;;;;0.00;0.00;;;;;-146.67;33.12;73725.38;5025559;28;61954;-76
2022/06/26 00:32:11;;;;;;;;;0.00;0.00;;;;;-146.67;32.96;73721.38;5043640;28;62021;-75
2022/06/26 00:34:36;;;;;;;;;0.00;0.00;;;;;-146.67;33.42;73731.34;5043900;28;61829;-76
2022/06/26 00:37:02;;;;;;;;;0.00;0.00;;;;;-146.67;33.14;73723.38;5043103;28;62087;-76
2022/06/26 00:39:28;;;;;;;;;0.00;0.00;;;;;-146.67;33.02;73733.34;5043797;28;61950;-76
2022/06/26 00:41:53;;;;;;;;;0.00;0.00;;;;;-146.67;33.21;73727.34;5043701;28;62184;-76
2022/06/26 00:44:23;;;;;;;;;0.00;0.00;;;;;-146.67;33.04;73713.38;5043692;28;61911;-76
2022/06/26 00:46:49;;;;;;;;;0.00;0.00;;;;;-146.67;32.96;73707.41;5043270;28;61754;-76
2022/06/26 00:49:15;;;;;;;;;0.00;0.00;;;;;-146.67;33.09;73707.41;5025278;28;62192;-75
2022/06/26 00:51:45;;;;;;;;;0.00;0.00;;;;;-146.67;33.06;73715.38;5043289;28;62190;-76
2022/06/26 00:54:10;;;;;;;;;0.00;0.00;;;;;-146.67;33.34;73731.34;5043522;28;61826;-75
2022/06/26 00:56:37;;;;;;;;;0.00;0.00;;;;;-146.67;33.47;73737.34;5043107;28;62973;-75
2022/06/26 00:59:04;;;;;;;;;0.00;0.00;;;;;-146.67;33.12;73737.34;5025257;28;61898;-76
2022/06/26 01:01:30;;;;;;;;;0.00;0.00;;;;;-146.67;33.21;73741.34;5058865;28;62061;-76
2022/06/26 01:03:55;;;;;;;;;0.00;0.00;;;;;-146.67;33.26;73749.31;5043800;28;62378;-76
2022/06/26 01:06:21;;;;;;;;;0.00;0.00;;;;;-146.67;33.38;73751.31;5057669;28;63533;-75
2022/06/26 01:08:47;;;;;;;;;0.00;0.00;;;;;-146.67;33.15;73743.31;5043360;28;61773;-76
2022/06/26 01:11:18;;;;;;;;;0.00;0.00;;;;;-146.67;33.23;73745.31;5058823;28;61969;-76
2022/06/26 01:13:48;;;;;;;;;0.00;0.00;;;;;-146.67;33.09;73747.31;5043571;28;61879;-75
2022/06/26 01:16:16;;;;;;;;;0.00;0.00;;;;;-146.67;33.52;73751.31;5041167;28;63860;-76
2022/06/26 01:18:44;;;;;;;;;0.00;0.00;;;;;-146.67;33.50;73759.28;5043135;28;62250;-76
2022/06/26 01:21:09;;;;;;;;;0.00;0.00;;;;;-146.67;33.17;73767.28;5042584;28;62205;-76
2022/06/26 01:23:35;;;;;;;;;0.00;0.00;;;;;-146.67;33.25;73763.28;5043037;28;62087;-75
2022/06/26 01:26:01;;;;;;;;;0.00;0.00;;;;;-146.67;33.32;73767.28;5024646;28;64848;-76
2022/06/26 01:28:26;;;;;;;;;0.00;0.00;;;;;-146.67;33.19;73767.28;5024813;28;62008;-76
2022/06/26 01:30:51;;;;;;;;;0.00;0.00;;;;;-146.67;33.23;73765.28;5043007;28;61706;-75
2022/06/26 01:33:17;;;;;;;;;0.00;0.00;;;;;-146.67;33.41;73777.25;5025308;28;61979;-76
2022/06/26 01:35:42;;;;;;;;;0.00;0.00;;;;;-146.67;33.50;73793.22;5042029;28;62028;-76
2022/06/26 01:38:17;;;;;;;;;0.00;0.00;;;;;-146.67;33.69;73803.22;5025361;28;61933;-76
2022/06/26 01:40:44;;;;;;;;;0.00;0.00;;;;;-146.67;33.52;73807.19;5025023;28;61974;-76
2022/06/26 01:43:12;;;;;;;;;0.00;0.00;;;;;-146.67;33.63;73811.19;5043201;28;62156;-76
2022/06/26 01:45:42;;;;;;;;;0.00;0.00;;;;;-146.67;33.44;73815.19;5042198;28;61894;-76
2022/06/26 01:48:07;;;;;;;;;0.00;0.00;;;;;-146.67;33.46;73805.22;5043004;28;62026;-75
2022/06/26 01:50:33;;;;;;;;;0.00;0.00;;;;;-146.67;33.61;73809.19;5042168;28;61751;-76
2022/06/26 01:52:58;;;;;;;;;0.00;0.00;;;;;-146.67;33.41;73815.19;5025052;28;61882;-76
2022/06/26 01:55:24;;;;;;;;;0.00;0.00;;;;;-146.67;33.69;73813.19;5023546;28;63934;-76
2022/06/26 01:57:49;;;;;;;;;0.00;0.00;;;;;-146.67;33.44;73813.19;5024027;28;61999;-76
2022/06/26 02:00:15;;;;;;;;;0.00;0.00;;;;;-146.67;33.63;73821.19;5024326;28;61755;-75
2022/06/26 02:02:40;;;;;;;;;0.00;0.00;;;;;-146.67;33.40;73821.19;5042723;28;62243;-75
2022/06/26 02:05:06;;;;;;;;;0.00;0.00;;;;;-146.67;33.67;73823.16;5023469;28;63970;-75
2022/06/26 02:07:32;;;;;;;;;0.00;0.00;;;;;-146.67;33.60;73825.16;5024138;28;61800;-76
2022/06/26 02:15:26;;;;;;;;;0.00;0.00;;;;;-146.67;33.57;73825.16;5041888;28;62286;-75
2022/06/26 02:17:51;;;;;;;;;0.00;0.00;;;;;-146.67;33.82;73821.19;5024172;28;61926;-75
2022/06/26 02:20:16;;;;;;;;;0.00;0.00;;;;;-146.67;33.54;73825.16;5042342;28;61870;-75
2022/06/26 02:22:42;;;;;;;;;0.00;0.00;;;;;-146.67;33.55;73833.16;5042626;28;61714;-76
2022/06/26 02:25:08;;;;;;;;;0.00;0.00;;;;;-146.67;33.57;73841.13;5041515;28;61755;-76
2022/06/26 02:27:34;;;;;;;;;0.00;0.00;;;;;-146.67;33.56;73849.13;5042929;28;61877;-76
2022/06/26 02:30:00;;;;;;;;;0.00;0.00;;;;;-146.67;33.84;73851.13;5027766;28;62164;-75
2022/06/26 02:32:27;;;;;;;;;0.00;0.00;;;;;-146.67;33.69;73845.13;5027708;28;62066;-76
2022/06/26 02:34:52;;;;;;;;;0.00;0.00;;;;;-146.67;33.60;73847.13;5044976;28;61930;-75
2022/06/26 02:37:18;;;;;;;;;0.00;0.00;;;;;-146.67;33.30;73837.16;5027758;28;62079;-75
2022/06/26 02:39:43;;;;;;;;;0.00;0.00;;;;;-146.67;33.37;73835.16;5060924;28;62439;-75
2022/06/26 02:42:09;;;;;;;;;0.00;0.00;;;;;-146.67;33.31;73821.19;5028132;28;61924;-75
2022/06/26 02:44:34;;;;;;;;;0.00;0.00;;;;;-146.67;33.30;73817.19;5044967;28;62897;-76
2022/06/26 02:47:00;;;;;;;;;0.00;0.00;;;;;-146.67;33.27;73821.19;5045436;28;62046;-75
2022/06/26 02:49:26;;;;;;;;;0.00;0.00;;;;;-146.67;33.41;73823.16;5045382;28;62269;-75
2022/06/26 02:51:51;;;;;;;;;0.00;0.00;;;;;-146.67;33.52;73815.19;5060769;28;62319;-75
2022/06/26 02:54:17;;;;;;;;;0.00;0.00;;;;;-146.67;33.49;73805.22;5044867;28;62349;-75
2022/06/26 02:56:42;;;;;;;;;0.00;0.00;;;;;-146.67;33.57;73811.19;5027388;28;62635;-75
2022/06/26 02:59:08;;;;;;;;;0.00;0.00;;;;;-146.67;33.01;73809.19;5044837;28;62007;-75
2022/06/26 03:01:33;;;;;;;;;0.00;0.00;;;;;-146.67;33.24;73821.19;5026978;28;61998;-75
2022/06/26 03:03:59;;;;;;;;;0.00;0.00;;;;;-146.67;32.92;73821.19;5044717;28;62089;-75
2022/06/26 03:06:24;;;;;;;;;0.00;0.00;;;;;-146.67;33.46;73831.16;5044838;28;61832;-75
2022/06/26 03:08:49;;;;;;;;;0.00;0.00;;;;;-146.67;33.12;73825.16;5060910;28;61695;-75
2022/06/26 03:11:15;;;;;;;;;0.00;0.00;;;;;-146.67;33.42;73827.16;5045501;28;61755;-76
2022/06/26 03:13:40;;;;;;;;;0.00;0.00;;;;;-146.67;33.36;73819.19;5026652;28;63744;-75
2022/06/26 03:16:06;;;;;;;;;0.00;0.00;;;;;-146.67;33.14;73815.19;5045071;28;61837;-75
2022/06/26 03:18:31;;;;;;;;;0.00;0.00;;;;;-146.67;32.95;73797.22;5045198;28;61943;-75
2022/06/26 03:20:57;;;;;;;;;0.00;0.00;;;;;-146.67;32.70;73797.22;5026900;28;62199;-75
2022/06/26 03:24:01;;;;;;;;;0.00;0.00;;;;;-146.67;33.16;73815.19;5044680;28;62329;-75
2022/06/26 03:26:08;;;;;;;;;0.00;0.00;;;;;-146.67;33.32;73811.19;5044377;28;61911;-75
2022/06/26 03:28:33;;;;;;;;;0.00;0.00;;;;;-146.67;33.02;73821.19;5044988;28;61976;-76
2022/06/26 03:30:58;;;;;;;;;0.00;0.00;;;;;-146.67;32.90;73827.16;5026442;28;61801;-75
2022/06/26 03:33:24;;;;;;;;;0.00;0.00;;;;;-146.67;33.29;73819.19;5044672;28;63127;-75
2022/06/26 03:35:49;;;;;;;;;0.00;0.00;;;;;-146.67;33.09;73817.19;5059721;28;62017;-75
2022/06/26 03:38:15;;;;;;;;;0.00;0.00;;;;;-146.67;32.95;73813.19;5045030;28;61807;-75
2022/06/26 03:40:41;;;;;;;;;0.00;0.00;;;;;-146.67;32.91;73815.19;5043745;28;62012;-76
2022/06/26 03:43:09;;;;;;;;;0.00;0.00;;;;;-146.67;33.17;73811.19;5044128;28;61892;-75
2022/06/26 03:45:35;;;;;;;;;0.00;0.00;;;;;-146.67;32.82;73801.22;5044746;28;61716;-76
2022/06/26 03:48:00;;;;;;;;;0.00;0.00;;;;;-146.67;32.94;73795.22;5026865;28;62201;-75
2022/06/26 03:50:26;;;;;;;;;0.00;0.00;;;;;-146.67;32.65;73801.22;5026531;28;62122;-75
2022/06/26 03:52:51;;;;;;;;;0.00;0.00;;;;;-146.67;32.55;73795.22;5043881;28;61838;-75
2022/06/26 03:55:17;;;;;;;;;0.00;0.00;;;;;-146.67;32.53;73795.22;5044482;28;61886;-75
2022/06/26 03:57:42;;;;;;;;;0.00;0.00;;;;;-146.67;32.33;73801.22;5026529;28;61845;-75
2022/06/26 04:00:08;;;;;;;;;0.00;0.00;;;;;-146.67;32.58;73799.22;5044289;28;62062;-75
2022/06/26 04:02:34;;;;;;;;;0.00;0.00;;;;;-146.67;32.66;73793.22;5043871;28;62845;-75
2022/06/26 04:04:59;;;;;;;;;0.00;0.00;;;;;-146.67;32.31;73813.19;5043571;28;62440;-75
2022/06/26 04:07:24;;;;;;;;;0.00;0.00;;;;;-146.67;32.44;73831.16;5044749;28;62181;-75
2022/06/26 04:09:50;;;;;;;;;0.00;0.00;;;;;-146.67;32.53;73827.16;5044268;28;61794;-75
2022/06/26 04:12:16;;;;;;;;;0.00;0.00;;;;;-146.67;32.81;73841.13;5025898;28;63442;-75
2022/06/26 04:14:41;;;;;;;;;0.00;0.00;;;;;-146.67;32.91;73835.16;5026171;28;62063;-75
2022/06/26 04:17:07;;;;;;;;;0.00;0.00;;;;;-146.67;32.31;73845.13;5025917;28;61966;-76
2022/06/26 04:19:32;;;;;;;;;0.00;0.00;;;;;-146.67;32.84;73853.13;5059159;28;61758;-75
2022/06/26 04:21:58;;;;;;;;;0.00;0.00;;;;;-146.67;32.71;73855.09;5043406;28;62951;-75
2022/06/26 04:24:23;;;;;;;;;0.00;0.00;;;;;-146.67;32.81;73861.09;5026093;28;61953;-75
2022/06/26 04:26:49;;;;;;;;;0.00;0.00;;;;;-146.67;32.50;73847.13;5026236;28;61899;-76
2022/06/26 04:29:14;;;;;;;;;0.00;0.00;;;;;-146.67;32.14;73849.13;5043469;28;61859;-75
2022/06/26 04:31:40;;;;;;;;;0.00;0.00;;;;;-146.67;32.39;73857.09;5043192;28;61852;-75
2022/06/26 04:34:05;;;;;;;;;0.00;0.00;;;;;-146.67;32.08;73851.13;5043949;28;62149;-75
2022/06/26 04:36:31;;;;;;;;;0.00;0.00;;;;;-146.67;32.32;73869.09;5025739;28;61969;-75
2022/06/26 04:38:56;;;;;;;;;0.00;0.00;;;;;-146.67;32.04;73873.06;5059399;28;61845;-75
2022/06/26 04:41:37;;;;;;;;;0.00;0.00;;;;;-146.67;32.28;73871.06;5043287;28;62071;-76
2022/06/26 04:44:12;;;;;;;;;0.00;0.00;;;;;-146.67;31.89;73865.09;5043501;28;61730;-75
2022/06/26 04:46:40;;;;;;;;;0.00;0.00;;;;;-146.67;31.98;73855.09;5059650;28;61751;-75
2022/06/26 04:49:06;;;;;;;;;0.00;0.00;;;;;-146.67;32.35;73851.13;5059172;28;61952;-75
2022/06/26 04:51:34;;;;;;;;;0.00;0.00;;;;;-146.67;31.96;73855.09;5024539;28;64087;-75
2022/06/26 04:54:00;;;;;;;;;0.00;0.00;;;;;-146.67;32.00;73873.06;5043519;28;61767;-75
2022/06/26 04:56:26;;;;;;;;;0.00;0.00;;;;;-146.67;32.33;73875.06;5043591;28;62030;-74
2022/06/26 04:58:53;;;;;;;;;0.00;0.00;;;;;-146.67;32.18;73873.06;5043474;28;61852;-75
2022/06/26 05:01:18;;;;;;;;;0.00;0.00;;;;;-146.67;32.09;73879.06;5042791;28;62171;-75
2022/06/26 05:03:44;;;;;;;;;0.00;0.00;;;;;-146.67;32.25;73893.03;5025685;28;61858;-75
2022/06/26 05:06:10;;;;;;;;;0.00;0.00;;;;;-146.67;32.17;73883.06;5043165;28;61769;-74
2022/06/26 05:08:35;;;;;;;;;0.00;0.00;;;;;-146.67;32.27;73881.06;5025794;28;62150;-75
2022/06/26 05:11:01;;;;;;;;;0.00;0.00;;;;;-146.67;32.33;73887.03;5024431;28;63987;-75
2022/06/26 05:13:26;;;;;;;;;0.00;0.00;;;;;-146.67;32.18;73887.03;5043204;28;61826;-75
2022/06/26 05:15:52;;;;;;;;;0.00;0.00;;;;;-146.67;32.20;73889.03;5043235;28;62111;-75
2022/06/26 05:18:17;;;;;;;;;0.00;0.00;;;;;-146.67;32.02;73871.06;5043312;28;62057;-75
2022/06/26 05:20:43;;;;;;;;;0.00;0.00;;;;;-146.67;32.07;73859.09;5042192;28;63459;-75
2022/06/26 05:23:09;;;;;;;;;0.00;0.00;;;;;-146.67;31.62;73851.13;5042977;28;61785;-75
2022/06/26 05:25:34;;;;;;;;;0.00;0.00;;;;;-146.67;31.75;73855.09;5058847;28;61997;-75
2022/06/26 05:28:00;;;;;;;;;0.00;0.00;;;;;-146.67;31.70;73845.13;5043163;28;61832;-75
2022/06/26 05:30:25;;;;;;;;;0.00;0.00;;;;;-146.67;31.85;73843.13;5057231;28;63589;-75
2022/06/26 05:32:51;;;;;;;;;0.00;0.00;;;;;-146.67;31.59;73847.13;5043193;28;61823;-75
2022/06/26 05:35:17;;;;;;;;;0.00;0.00;;;;;-146.67;31.92;73845.13;5024677;28;61827;-75
2022/06/26 05:37:42;;;;;;;;;0.00;0.00;;;;;-146.67;31.97;73843.13;5025259;28;62049;-75
2022/06/26 05:40:08;;;;;;;;;0.00;0.00;;;;;-146.67;31.82;73835.16;5042324;28;61884;-75
2022/06/26 05:42:33;;;;;;;;;0.00;0.00;;;;;-146.67;31.47;73819.19;5042847;28;61904;-75
2022/06/26 05:44:59;;;;;;;;;0.00;0.00;;;;;-146.67;31.59;73803.22;5025051;28;62392;-75
2022/06/26 05:47:24;;;;;;;;;0.00;0.00;;;;;-146.67;31.74;73817.19;5043033;28;61733;-74
2022/06/26 05:49:50;;;;;;;;;0.00;0.00;;;;;-146.67;31.61;73813.19;5023267;28;64652;-75
2022/06/26 05:52:16;;;;;;;;;0.00;0.00;;;;;-146.67;31.51;73813.19;5024184;28;62113;-75
2022/06/26 05:54:43;;;;;;;;;0.00;0.00;;;;;-146.67;31.28;73811.19;5042599;28;61881;-75
2022/06/26 05:57:11;;;;;;;;;0.00;0.00;;;;;-146.67;31.42;73817.19;5024610;28;61817;-75
2022/06/26 05:59:36;;;;;;;;;0.00;0.00;;;;;-146.67;31.36;73799.22;5041486;28;62100;-74
2022/06/26 06:02:02;;;;;;;;;0.00;0.00;;;;;-146.67;31.46;73795.22;5042040;28;61786;-75
2022/06/26 06:04:27;;;;;;;;;0.00;0.00;;;;;-146.67;31.24;73781.25;5042249;28;62255;-75
2022/06/26 06:06:53;;;;;;;;;0.00;0.00;;;;;-146.67;31.08;73775.25;5024682;28;61893;-75
2022/06/26 06:09:18;;;;;;;;;0.00;0.00;;;;;-146.67;30.91;73771.28;5041407;28;61904;-75
2022/06/26 06:11:43;;;;;;;;;0.00;0.00;;;;;-146.67;30.86;73763.28;5042600;28;61959;-75
2022/06/26 06:14:09;;;;;;;;;0.00;0.00;;;;;-146.67;30.95;73741.34;5042666;28;61766;-75
2022/06/26 06:16:34;;;;;;;;;0.00;0.00;;;;;-146.67;30.85;73723.38;5024713;28;62093;-75
2022/06/26 06:19:00;;;;;;;;;0.00;0.00;;;;;-146.67;30.74;73717.38;5041850;28;61964;-75
2022/06/26 06:21:25;;;;;;;;;0.00;0.00;;;;;-146.67;30.34;73745.31;5042134;28;61715;-75
2022/06/26 06:23:50;;;;;;;;;0.00;0.00;;;;;-146.67;30.52;73753.31;5042342;28;61905;-74
2022/06/26 06:26:16;;;;;;;;;1.00;1.00;;;;;-146.67;30.68;73757.31;5042323;28;61816;-75
2022/06/26 06:28:41;;;;;;;;;0.00;0.00;;;;;-146.67;30.73;73755.31;5041374;28;61896;-75
2022/06/26 06:31:07;;;;;;;;;0.00;0.00;;;;;-146.67;30.43;73767.28;5041716;28;62086;-75
2022/06/26 06:33:32;;;;;;;;;0.00;0.00;;;;;-146.67;30.44;73777.25;5042296;28;62097;-74
2022/06/26 06:35:58;;;;;;;;;0.00;0.00;;;;;-146.67;30.41;73775.25;5057404;28;61858;-75
2022/06/26 06:38:25;;;;;;;;;0.00;0.00;;;;;-146.67;30.23;73771.28;5056903;28;63337;-74
2022/06/26 06:40:50;;;;;;;;;0.00;0.00;;;;;-146.67;30.01;73769.28;5057617;28;62141;-75
2022/06/26 06:43:16;;;;;;;;;0.00;0.00;;;;;-146.67;29.92;73769.28;5024195;28;61822;-75
2022/06/26 06:45:42;;;;;;;;;0.00;0.00;;;;;-146.67;30.05;73771.28;5042102;28;61928;-75
2022/06/26 06:48:08;;;;;;;;;0.00;0.00;;;;;-146.67;30.31;73757.31;5041764;28;62240;-75
2022/06/26 06:50:35;;;;;;;;;0.00;0.00;;;;;-146.67;29.71;73737.34;5041387;28;61765;-75
2022/06/26 06:53:00;;;;;;;;;0.00;0.00;;;;;-146.67;30.04;73719.38;5041943;28;61704;-75
2022/06/26 06:55:26;;;;;;;;;0.00;0.00;;;;;-146.67;30.03;73693.44;5042249;28;61873;-75
2022/06/26 06:57:51;;;;;;;;;0.00;0.00;;;;;-146.67;29.61;73645.53;5041409;28;62983;-75
2022/06/26 07:00:17;;;;;;;;;0.00;0.00;;;;;-146.67;29.21;73587.63;5041420;28;61933;-75
2022/06/26 07:02:42;;;;;;;;;0.00;0.00;;;;;-146.67;28.66;73585.63;5023943;28;61781;-75
2022/06/26 07:05:08;;;;;;;;;0.00;0.00;;;;;-146.67;28.92;73569.66;5041693;28;61946;-76
2022/06/26 07:07:34;;;;;;;;;0.00;0.00;;;;;-146.67;28.86;73565.69;5041036;28;61898;-76
2022/06/26 07:10:00;;;;;;;;;0.00;0.00;;;;;-146.67;28.96;73547.72;5041857;28;61887;-75
2022/06/26 07:12:26;;;;;;;;;0.00;0.00;;;;;-146.67;28.27;73521.78;5041669;28;62458;-78
2022/06/26 07:14:52;;;;;;;;;0.00;0.00;;;;;-146.67;28.23;73507.78;5026671;28;61846;-76
2022/06/26 07:17:18;;;;;;;;;0.00;0.00;;;;;-146.67;28.01;73517.78;5044660;28;62064;-76
2022/06/26 07:19:44;;;;;;;;;0.00;0.00;;;;;-146.67;28.19;73501.81;5044564;28;61870;-75
2022/06/26 07:22:09;;;;;;;;;0.00;0.00;;;;;-146.67;28.24;73509.78;5026548;28;62067;-75
2022/06/26 07:24:34;;;;;;;;;0.00;0.00;;;;;-146.67;28.12;73493.81;5044284;28;62018;-75
2022/06/26 07:27:00;;;;;;;;;0.00;0.00;;;;;-146.67;27.66;73483.84;5031744;28;63793;-76
2022/06/26 07:29:26;;;;;;;;;0.00;0.00;;;;;-146.67;27.77;73487.84;5026065;28;62018;-76
2022/06/26 07:31:51;;;;;;;;;0.00;0.00;;;;;-146.67;28.16;73483.84;5026072;28;62057;-76
2022/06/26 07:34:17;;;;;;;;;0.00;0.00;;;;;-146.67;27.72;73489.84;5044156;28;61755;-74
2022/06/26 07:36:44;;;;;;;;;0.00;0.00;;;;;-146.67;27.77;73467.88;5041739;28;62828;-75
2022/06/26 07:39:12;;;;;;;;;0.00;0.00;;;;;-146.67;27.91;73435.94;5043151;28;61978;-74
2022/06/26 07:41:38;;;;;;;;;0.00;0.00;;;;;-146.67;27.23;73423.97;5026072;28;62261;-74
2022/06/26 07:44:04;;;;;;;;;0.00;0.00;;;;;-146.67;27.57;73419.97;5026246;28;62172;-73
2022/06/26 07:46:30;;;;;;;;;0.00;0.00;;;;;-146.67;27.38;73412.00;5043196;28;61947;-75
2022/06/26 07:48:55;;;;;;;;;0.00;0.00;;;;;-146.67;27.37;73412.00;5043967;28;61988;-79
2022/06/26 07:51:21;;;;;;;;;0.00;0.00;;;;;-146.67;26.97;73414.00;5043545;28;61980;-79
2022/06/26 07:53:46;;;;;;;;;0.00;0.00;;;;;-146.67;26.92;73427.97;5044193;28;61903;-80
2022/06/26 07:56:13;;;;;;;;;0.00;0.00;;;;;-146.67;27.19;73429.97;5025433;28;63480;-80
2022/06/26 07:58:38;;;;;;;;;0.00;0.00;;;;;-146.67;27.36;73421.97;5043573;28;61869;-80
2022/06/26 08:01:04;;;;;;;;;0.00;0.00;;;;;-146.67;27.16;73425.97;5043781;28;61983;-79
2022/06/26 08:03:30;;;;;;;;;0.00;0.00;;;;;-146.67;27.47;73414.00;5026212;28;61983;-79
2022/06/26 08:05:56;;;;;;;;;0.00;0.00;;;;;-146.67;27.10;73398.03;5042800;28;62102;-85
2022/06/26 08:08:21;;;;;;;;;0.00;0.00;;;;;-146.67;26.73;73392.03;5043891;28;61789;-80
2022/06/26 08:10:47;;;;;;;;;0.00;0.00;;;;;-146.67;27.15;73394.03;5043592;28;61770;-78
2022/06/26 08:13:12;;;;;;;;;0.00;0.00;;;;;-146.67;26.76;73378.06;5026130;28;62069;-76
2022/06/26 08:15:37;;;;;;;;;0.00;0.00;;;;;-146.67;26.36;73382.06;5025120;28;64876;-75
2022/06/26 08:18:03;;;;;;;;;0.00;0.00;;;;;-146.67;26.88;73376.06;5059170;28;61681;-76
2022/06/26 08:20:29;;;;;;;;;0.00;0.00;;;;;-146.67;26.54;73386.03;5025564;28;61926;-75
2022/06/26 08:22:54;;;;;;;;;0.00;0.00;;;;;-146.67;26.63;73384.06;5044056;28;62315;-73
2022/06/26 08:25:20;;;;;;;;;0.00;0.00;;;;;-146.67;26.33;73388.03;5025067;28;63741;-73
2022/06/26 08:27:45;;;;;;;;;0.00;0.00;;;;;-146.67;26.75;73392.03;5025833;28;62479;-73
2022/06/26 08:30:12;;;;;;;;;0.00;0.00;;;;;-146.67;26.37;73396.03;5025595;28;61928;-74
2022/06/26 08:32:38;;;;;;;;;0.00;0.00;;;;;-146.67;26.80;73398.03;5043885;28;61796;-74
2022/06/26 08:35:05;;;;;;;;;0.00;0.00;;;;;-146.67;26.76;73386.03;5042463;28;62404;-73
2022/06/26 08:37:31;;;;;;;;;0.00;0.00;;;;;-146.67;26.57;73384.06;5044077;28;61860;-73
2022/06/26 08:39:56;;;;;;;;;0.00;0.00;;;;;-146.67;26.39;73382.06;5043567;28;62049;-73
2022/06/26 08:42:22;;;;;;;;;0.00;0.00;;;;;-146.67;26.33;73374.06;5043351;28;61924;-74
2022/06/26 08:44:47;;;;;;;;;0.00;0.00;;;;;-146.67;26.65;73370.06;5022859;28;62817;-72
2022/06/26 08:47:16;;;;;;;;;0.00;0.00;;;;;-146.67;26.42;73368.09;5023976;28;61719;-74
2022/06/26 08:49:43;;;;;;;;;0.00;0.00;;;;;-146.67;26.49;73352.13;5023060;28;61851;-74
2022/06/26 08:52:14;;;;;;;;;0.00;0.00;;;;;-146.67;26.35;73332.16;5040565;28;61946;-73
2022/06/26 08:54:41;;;;;;;;;0.00;0.00;;;;;-146.67;26.37;73318.19;5023099;28;63629;-73
2022/06/26 08:57:07;;;;;;;;;0.00;0.00;;;;;-146.67;25.95;73294.22;5040485;28;61865;-74
2022/06/26 08:59:32;;;;;;;;;0.00;0.00;;;;;-146.67;25.52;73256.31;5054287;28;61801;-73
2022/06/26 09:01:58;;;;;;;;;0.00;0.00;;;;;-146.67;25.42;73226.38;5038715;28;62164;-74
2022/06/26 09:04:24;;;;;;;;;0.00;0.00;;;;;-146.67;25.71;73204.44;5039853;28;61943;-74
2022/06/26 09:06:50;;;;;;;;;0.00;0.00;;;;;-146.67;25.73;73184.47;5041068;28;61785;-74
2022/06/26 09:09:27;;;;;;;;;0.00;0.00;;;;;-146.67;25.51;73174.50;5023951;28;61903;-74
2022/06/26 09:11:56;;;;;;;;;0.00;0.00;;;;;-146.67;25.22;73182.47;5023867;28;61988;-75
2022/06/26 09:14:23;;;;;;;;;0.00;0.00;;;;;-146.67;25.44;73202.44;5041190;28;62055;-73
2022/06/26 09:16:50;;;;;;;;;0.00;0.00;;;;;-146.67;25.37;73188.47;5024153;28;61984;-73
2022/06/26 09:19:26;;;;;;;;;0.00;0.00;;;;;-146.67;25.51;73178.47;5037230;28;61981;-73
2022/06/26 09:21:52;;;;;;;;;0.00;0.00;;;;;-146.67;25.05;73164.50;5041718;28;62011;-73
2022/06/26 09:24:20;;;;;;;;;0.00;0.00;;;;;-146.67;24.85;73174.50;5038711;28;63053;-75
2022/06/26 09:27:04;;;;;;;;;0.00;0.00;;;;;-146.67;25.49;73176.47;5031326;28;61786;-75
2022/06/26 09:29:29;;;;;;;;;0.00;0.00;;;;;-146.67;25.35;73208.41;5042466;28;61897;-75
2022/06/26 09:31:55;;;;;;;;;0.00;0.00;;;;;-146.67;25.31;73174.50;5041641;28;62005;-75
2022/06/26 09:34:24;;;;;;;;;0.00;0.00;;;;;-146.67;25.26;73150.53;5040812;28;62710;-82
2022/06/26 09:37:01;;;;;;;;;0.00;0.00;;;;;-146.67;24.96;73148.53;5040732;28;62200;-74
2022/06/26 09:39:29;;;;;;;;;0.00;0.00;;;;;-146.67;25.30;73160.50;5042081;28;61969;-79
2022/06/26 09:41:54;;;;;;;;;0.00;0.00;;;;;-146.67;24.68;73178.47;5052311;28;61943;-81
2022/06/26 09:44:21;;;;;;;;;0.00;0.00;;;;;-146.67;24.88;73174.50;5041171;28;62044;-78
2022/06/26 09:46:48;;;;;;;;;0.00;0.00;;;;;-146.67;24.55;73166.50;5049953;28;62073;-77
2022/06/26 09:49:14;;;;;;;;;0.00;0.00;;;;;-146.67;24.19;73154.53;5023674;28;62062;-73
2022/06/26 09:51:40;;;;;;;;;0.00;0.00;;;;;-146.67;24.47;73144.56;5023365;28;61851;-74
2022/06/26 09:54:06;;;;;;;;;0.00;0.00;;;;;-146.67;24.03;73140.56;5022701;28;63303;-72
2022/06/26 09:56:33;;;;;;;;;0.00;0.00;;;;;-146.67;24.09;73136.56;5041283;28;61987;-75
2022/06/26 09:58:59;;;;;;;;;0.00;0.00;;;;;-146.67;24.62;73130.59;5023246;28;61724;-74
2022/06/26 10:07:01;;;;;;;;;0.00;0.00;;;;;-146.67;23.56;73112.63;5021390;28;61736;-75
2022/06/26 10:09:29;;;;;;;;;0.00;0.00;;;;;-146.67;23.84;73124.59;5004052;28;61959;-76
2022/06/26 10:11:58;;;;;;;;;0.00;0.00;;;;;-146.67;23.96;73126.59;5004069;28;61796;-76
2022/06/26 10:14:42;;;;;;;;;0.00;0.00;;;;;-146.67;24.00;73120.59;5000769;28;63575;-76
2022/06/26 10:17:16;;;;;;;;;0.00;0.00;;;;;-146.67;23.04;73122.59;5001672;28;61958;-75
2022/06/26 10:19:51;;;;;;;;;0.00;0.00;;;;;-146.67;23.74;73116.59;5000889;28;62085;-75
2022/06/26 10:22:17;;;;;;;;;0.00;0.00;;;;;-146.67;23.42;73100.66;5003761;28;62147;-75
2022/06/26 10:24:55;;;;;;;;;0.00;0.00;;;;;-146.67;23.31;73090.66;5021421;28;62938;-76
2022/06/26 10:27:30;;;;;;;;;0.00;0.00;;;;;-146.67;23.48;73094.66;5021833;28;61839;-75
2022/06/26 10:30:07;;;;;;;;;0.00;0.00;;;;;-146.67;23.71;73090.66;5003298;28;62013;-76
2022/06/26 10:32:34;;;;;;;;;0.00;0.00;;;;;-146.67;23.56;73072.69;5019064;28;61896;-75
2022/06/26 10:35:00;;;;;;;;;0.00;0.00;;;;;-146.67;23.37;73058.72;5019461;28;62166;-75
2022/06/26 10:37:26;;;;;;;;;0.00;0.00;;;;;-146.67;23.50;73074.69;5021419;28;62077;-76
2022/06/26 10:39:54;;;;;;;;;0.00;0.00;;;;;-146.67;23.33;73078.69;5021628;28;62321;-75
2022/06/26 10:45:12;;;;;;;;;0.00;0.00;;;;;-146.67;23.82;73072.69;5021147;28;61802;-76
2022/06/26 10:47:51;;;;;;;;;0.00;0.00;;;;;-146.67;23.67;73062.72;5004235;28;61789;-75
2022/06/26 10:50:40;;;;;;;;;0.00;0.00;;;;;-146.67;23.51;73048.75;5024621;28;61932;-76
2022/06/26 10:53:18;;;;;;;;;0.00;0.00;;;;;-146.67;23.44;73038.78;5025657;28;61774;-76
2022/06/26 10:55:49;;;;;;;;;0.00;0.00;;;;;-146.67;22.77;73040.78;5006287;28;64240;-77
2022/06/26 10:58:29;;;;;;;;;0.00;0.00;;;;;-146.67;23.33;73052.75;5024259;28;61678;-78
2022/06/26 11:01:00;;;;;;;;;0.00;0.00;;;;;-146.67;23.20;73056.75;5025118;28;61780;-77
2022/06/26 11:03:27;;;;;;;;;0.00;0.00;;;;;-146.67;22.68;73044.75;5026668;28;62053;-76
2022/06/26 11:06:00;;;;;;;;;0.00;0.00;;;;;-146.67;22.61;73024.81;5026598;28;65175;-77
2022/06/26 11:08:30;;;;;;;;;0.00;0.00;;;;;-146.67;21.82;73030.78;5044176;28;61862;-75
2022/06/26 11:11:14;;;;;;;;;0.00;0.00;;;;;-146.67;22.60;73002.84;5045358;28;61752;-77
2022/06/26 11:13:49;;;;;;;;;0.00;0.00;;;;;-146.67;22.60;72982.91;5045721;28;61857;-75
2022/06/26 11:16:15;;;;;;;;;0.00;0.00;;;;;-146.67;22.76;72968.94;5044775;28;63169;-75
2022/06/26 11:18:41;;;;;;;;;0.00;0.00;;;;;-146.67;22.68;72958.94;5044863;28;61904;-74
2022/06/26 11:21:06;;;;;;;;;0.00;0.00;;;;;-146.67;22.88;72939.00;5044868;28;61851;-75
2022/06/26 11:23:34;;;;;;;;;0.00;0.00;;;;;-146.67;22.52;72891.09;5045355;28;61802;-75
2022/06/26 11:26:13;;;;;;;;;0.00;0.00;;;;;-146.67;22.10;72869.13;5044719;28;62131;-75
2022/06/26 11:28:41;;;;;;;;;0.00;0.00;;;;;-146.67;22.83;72859.16;5044795;28;61956;-76